Terminal Aerodrome Forecast
Issued by NWS Charleston, WV

Current Version | Previous Version | Graphics & Text | Print | Product List | Glossary Off
Versions: 1 2 3 4 5 6 7 8 9 10 11 12 13 14 15 16 17 18 19 20 21

359
FTUS41 KRLX 271724
TAFPKB
TAF
KPKB 271724Z 2718/2818 23006KT P6SM SCT060
     FM280200 00000KT P6SM SCT110
     FM281400 21005KT P6SM SCT060=

USA.gov is the U.S. government's official web portal to all federal, state and local government web resources and services.